Time;durP1;ratioP1;P1;durP2;ratioP2;P2;SDS_P1;SDS_P2;PMS_P1;PMS_P2;Temp;Humidity;BMP_temperature;BMP_pressure;BME280_temperature;BME280_humidity;BME280_pressure;Samples;Min_cycle;Max_cycle;Signal;HPM_P1;HPM_P2
2022/06/18 00:00:46;;;;;;;;;;;;;;;18.22;63.62;101482.31;5065663;28;19934;-79
2022/06/18 00:03:12;;;;;;;;;;;;;;;18.21;63.65;101481.47;5062315;28;19924;-78
2022/06/18 00:05:38;;;;;;;;;;;;;;;18.25;61.89;101466.41;5062387;28;20012;-79
2022/06/18 00:08:05;;;;;;;;;;;;;;;18.25;61.39;101466.41;5065764;28;19931;-80
2022/06/18 00:10:31;;;;;;;;;;;;;;;18.26;61.74;101460.25;5047475;28;20035;-79
2022/06/18 00:15:51;;;;;;;;;;;;;;;18.24;61.50;101454.19;5065770;28;19978;-79
2022/06/18 00:18:16;;;;;;;;;;;;;;;18.26;61.44;101457.59;5061079;28;19920;-78
2022/06/18 00:20:42;;;;;;;;;;;;;;;18.23;61.56;101455.09;5063523;28;19935;-78
2022/06/18 00:23:14;;;;;;;;;;;;;;;18.20;63.07;101456.09;5063328;28;20387;-79
2022/06/18 00:25:41;;;;;;;;;;;;;;;18.18;62.64;101461.41;5063504;28;19978;-78
2022/06/18 00:28:11;;;;;;;;;;;;;;;18.20;61.89;101452.59;5062353;28;20416;-79
2022/06/18 00:30:36;;;;;;;;;;;;;;;18.16;63.33;101451.88;5063395;28;19924;-78
2022/06/18 00:33:02;;;;;;;;;;;;;;;18.15;63.05;101458.06;5059406;28;19928;-79
2022/06/18 00:35:27;;;;;;;;;;;;;;;18.15;62.43;101463.31;5063368;28;19982;-78
2022/06/18 00:37:57;;;;;;;;;;;;;;;18.16;62.18;101463.25;5061311;28;19928;-78
2022/06/18 00:40:29;;;;;;;;;;;;;;;18.15;61.86;101460.69;5063217;28;19931;-79
2022/06/18 00:42:56;;;;;;;;;;;;;;;18.14;61.82;101451.94;5067078;28;19924;-79
2022/06/18 00:45:25;;;;;;;;;;;;;;;18.12;62.30;101450.31;5062000;28;19924;-79
2022/06/18 00:48:08;;;;;;;;;;;;;;;18.09;63.28;101461.78;5061995;28;20454;-78
2022/06/18 00:50:44;;;;;;;;;;;;;;;18.07;63.62;101460.13;5063403;28;19908;-78
2022/06/18 00:53:28;;;;;;;;;;;;;;;18.06;63.63;101461.94;5079151;28;19964;-79
2022/06/18 00:56:00;;;;;;;;;;;;;;;18.03;64.07;101458.56;5061464;28;19929;-79
2022/06/18 00:58:55;;;;;;;;;;;;;;;18.01;64.03;101453.34;5064605;28;19924;-79
2022/06/18 01:01:27;;;;;;;;;;;;;;;18.00;64.33;101449.03;5043268;28;19929;-79
2022/06/18 01:03:53;;;;;;;;;;;;;;;17.99;64.40;101454.34;5062884;28;19928;-79
2022/06/18 01:06:29;;;;;;;;;;;;;;;17.97;64.61;101453.56;5062696;28;20311;-79
2022/06/18 01:09:00;;;;;;;;;;;;;;;17.97;64.49;101451.78;5061876;28;19927;-78
2022/06/18 01:11:27;;;;;;;;;;;;;;;17.94;64.46;101451.91;5061548;28;19931;-79
2022/06/18 01:13:52;;;;;;;;;;;;;;;17.94;64.72;101438.78;5062887;28;19931;-78
2022/06/18 01:16:18;;;;;;;;;;;;;;;17.92;64.79;101444.97;5056166;28;19929;-79
2022/06/18 01:18:45;;;;;;;;;;;;;;;17.89;65.07;101445.97;5061264;28;20393;-79
2022/06/18 01:21:17;;;;;;;;;;;;;;;17.89;64.87;101447.72;5062045;28;19931;-79
2022/06/18 01:23:47;;;;;;;;;;;;;;;17.85;65.21;101441.78;5064452;28;20529;-79
2022/06/18 01:26:12;;;;;;;;;;;;;;;17.88;64.51;101439.03;5064679;28;19952;-79
2022/06/18 01:28:38;;;;;;;;;;;;;;;17.86;64.77;101437.34;5065774;28;20021;-76
2022/06/18 01:31:03;;;;;;;;;;;;;;;17.83;65.34;101433.06;5064844;28;19921;-77
2022/06/18 01:33:31;;;;;;;;;;;;;;;17.81;65.34;101432.28;5062217;28;19936;-76
2022/06/18 01:35:56;;;;;;;;;;;;;;;17.78;65.21;101432.41;5063397;28;19925;-80
2022/06/18 01:38:24;;;;;;;;;;;;;;;17.79;64.80;101430.66;5061806;28;20601;-79
2022/06/18 01:43:50;;;;;;;;;;;;;;;17.77;64.81;101422.81;5063517;28;20497;-79
2022/06/18 01:46:16;;;;;;;;;;;;;;;17.74;65.36;101424.72;5063628;28;19924;-80
2022/06/18 01:48:43;;;;;;;;;;;;;;;17.73;65.23;101418.63;5061502;28;19989;-78
2022/06/18 01:51:10;;;;;;;;;;;;;;;17.72;65.09;101422.16;5064030;28;19927;-82
2022/06/18 01:53:41;;;;;;;;;;;;;;;17.71;65.11;101419.59;5065899;28;19970;-81
2022/06/18 01:56:15;;;;;;;;;;;;;;;17.72;65.00;101414.25;5061026;28;19920;-82
2022/06/18 01:58:59;;;;;;;;;;;;;;;17.75;64.49;101413.28;5068316;28;20313;-82
2022/06/18 02:01:25;;;;;;;;;;;;;;;17.74;63.95;101415.03;5063013;28;20027;-82
2022/06/18 02:03:52;;;;;;;;;;;;;;;17.78;63.38;101407.91;5068160;28;19931;-82
2022/06/18 02:06:17;;;;;;;;;;;;;;;17.76;63.79;101404.50;5065545;28;20391;-81
2022/06/18 02:08:43;;;;;;;;;;;;;;;17.79;62.46;101409.63;5068147;28;19925;-81
2022/06/18 02:11:11;;;;;;;;;;;;;;;17.79;63.51;101399.97;5067095;28;20410;-82
2022/06/18 02:13:45;;;;;;;;;;;;;;;17.78;63.57;101398.25;5067825;28;19921;-82
2022/06/18 02:16:14;;;;;;;;;;;;;;;17.81;62.53;101395.50;5065473;28;19932;-77
2022/06/18 02:18:39;;;;;;;;;;;;;;;17.80;63.04;101395.56;5063555;28;19978;-82
2022/06/18 02:21:07;;;;;;;;;;;;;;;17.81;61.30;101384.13;5062948;28;19932;-77
2022/06/18 02:23:33;;;;;;;;;;;;;;;17.82;62.08;101391.09;5064541;28;21796;-76
2022/06/18 02:25:59;;;;;;;;;;;;;;;17.78;62.89;101395.63;5062621;28;19929;-76
2022/06/18 02:28:28;;;;;;;;;;;;;;;17.74;63.52;101386.13;5067271;28;19924;-77
2022/06/18 02:30:58;;;;;;;;;;;;;;;17.76;62.56;101383.47;5064106;28;19957;-79
2022/06/18 02:33:32;;;;;;;;;;;;;;;17.77;62.52;101386.00;5063734;28;19927;-79
2022/06/18 02:36:00;;;;;;;;;;;;;;;17.71;64.33;101396.78;5065517;28;19927;-79
2022/06/18 02:38:25;;;;;;;;;;;;;;;17.72;64.33;101385.34;5066168;28;19986;-82
2022/06/18 02:40:51;;;;;;;;;;;;;;;17.70;64.44;101381.94;5064772;28;20672;-82
2022/06/18 02:43:18;;;;;;;;;;;;;;;17.70;64.01;101381.09;5065804;28;20014;-79
2022/06/18 02:45:45;;;;;;;;;;;;;;;17.68;63.93;101383.75;5063653;28;19952;-79
2022/06/18 02:48:10;;;;;;;;;;;;;;;17.65;64.46;101394.41;5065816;28;19925;-79
2022/06/18 02:50:37;;;;;;;;;;;;;;;17.61;64.86;101392.81;5067296;28;19916;-81
2022/06/18 02:53:03;;;;;;;;;;;;;;;17.59;65.41;101400.75;5081828;28;20368;-82
2022/06/18 02:55:31;;;;;;;;;;;;;;;17.59;64.92;101394.63;5062132;28;19921;-77
2022/06/18 02:58:20;;;;;;;;;;;;;;;17.56;65.43;101392.97;5063942;28;19929;-76
2022/06/18 03:00:51;;;;;;;;;;;;;;;17.58;65.13;101395.53;5062782;28;20615;-77
2022/06/18 03:03:17;;;;;;;;;;;;;;;17.55;64.89;101398.28;5062687;28;19978;-78
2022/06/18 03:05:43;;;;;;;;;;;;;;;17.53;64.64;101398.34;5063802;28;19995;-78
2022/06/18 03:08:08;;;;;;;;;;;;;;;17.56;64.93;101403.47;5067036;28;19925;-81
2022/06/18 03:13:18;;;;;;;;;;;;;;;17.49;64.94;101396.78;5065817;28;19996;-79
2022/06/18 03:15:47;;;;;;;;;;;;;;;17.52;64.53;101401.91;5064478;28;20031;-78
2022/06/18 03:18:13;;;;;;;;;;;;;;;17.49;64.99;101403.78;5065016;28;19951;-78
2022/06/18 03:20:44;;;;;;;;;;;;;;;17.49;65.47;101399.41;5064169;28;19972;-79
2022/06/18 03:23:14;;;;;;;;;;;;;;;17.49;64.94;101395.91;5064652;28;19916;-79
2022/06/18 03:25:39;;;;;;;;;;;;;;;17.49;65.51;101398.53;5061298;28;20635;-78
2022/06/18 03:28:04;;;;;;;;;;;;;;;17.46;65.90;101403.91;5065722;28;19971;-79
2022/06/18 03:30:30;;;;;;;;;;;;;;;17.47;65.27;101400.38;5065378;28;19977;-79
2022/06/18 03:32:55;;;;;;;;;;;;;;;17.51;65.19;101404.56;5062471;28;20322;-79
2022/06/18 03:35:20;;;;;;;;;;;;;;;17.51;64.25;101407.19;5065012;28;19916;-78
2022/06/18 03:37:45;;;;;;;;;;;;;;;17.52;65.12;101406.28;5063108;28;20558;-78
2022/06/18 03:40:12;;;;;;;;;;;;;;;17.49;65.69;101404.66;5067062;28;19924;-78
2022/06/18 03:42:37;;;;;;;;;;;;;;;17.50;64.92;101408.97;5066608;28;19924;-78
2022/06/18 03:45:03;;;;;;;;;;;;;;;17.51;65.49;101415.94;5066717;28;19924;-78
2022/06/18 03:47:28;;;;;;;;;;;;;;;17.49;65.69;101401.16;5064408;28;20342;-78
2022/06/18 03:49:53;;;;;;;;;;;;;;;17.52;65.41;101401.91;5063308;28;20049;-78
2022/06/18 03:52:19;;;;;;;;;;;;;;;17.53;65.15;101415.91;5065488;28;20015;-78
2022/06/18 03:54:44;;;;;;;;;;;;;;;17.54;65.14;101405.31;5062368;28;20016;-78
2022/06/18 03:57:14;;;;;;;;;;;;;;;17.55;65.60;101409.66;5066096;28;19921;-78
2022/06/18 03:59:39;;;;;;;;;;;;;;;17.59;64.61;101416.53;5067754;28;20375;-78
2022/06/18 04:02:05;;;;;;;;;;;;;;;17.65;63.76;101407.53;5063670;28;19932;-78
2022/06/18 04:04:30;;;;;;;;;;;;;;;17.65;63.79;101412.78;5063105;28;19924;-78
2022/06/18 04:06:55;;;;;;;;;;;;;;;17.64;64.21;101404.97;5063071;28;20438;-78
2022/06/18 04:09:21;;;;;;;;;;;;;;;17.65;64.59;101401.44;5065371;28;19927;-79
2022/06/18 04:11:46;;;;;;;;;;;;;;;17.67;63.40;101400.47;5065076;28;19918;-78
2022/06/18 04:14:12;;;;;;;;;;;;;;;17.69;63.12;101395.13;5062008;28;19932;-78
2022/06/18 04:16:37;;;;;;;;;;;;;;;17.68;64.23;101396.91;5060289;28;20018;-78
2022/06/18 04:19:02;;;;;;;;;;;;;;;17.67;65.40;101399.59;5058730;28;20494;-79
2022/06/18 04:21:28;;;;;;;;;;;;;;;17.71;63.89;101398.56;5058459;28;19924;-78
2022/06/18 04:23:53;;;;;;;;;;;;;;;17.74;64.24;101401.06;5063540;28;19920;-78
2022/06/18 04:26:18;;;;;;;;;;;;;;;17.76;63.95;101404.50;5062098;28;19994;-78
2022/06/18 04:28:44;;;;;;;;;;;;;;;17.79;63.81;101407.00;5061973;28;19936;-78
2022/06/18 04:31:10;;;;;;;;;;;;;;;17.84;62.80;101400.63;5056458;28;19924;-78
2022/06/18 04:33:35;;;;;;;;;;;;;;;17.84;64.24;101397.13;5064053;28;19927;-78
2022/06/18 04:36:01;;;;;;;;;;;;;;;17.85;64.19;101398.84;5057383;28;19928;-78
2022/06/18 04:38:26;;;;;;;;;;;;;;;17.86;64.09;101397.91;5063961;28;20011;-79
2022/06/18 04:40:52;;;;;;;;;;;;;;;17.88;64.22;101398.72;5062045;28;19924;-79
2022/06/18 04:43:17;;;;;;;;;;;;;;;17.88;64.58;101398.72;5063717;28;19948;-82
2022/06/18 04:45:42;;;;;;;;;;;;;;;17.91;64.16;101388.09;5065389;28;19924;-82
2022/06/18 04:48:08;;;;;;;;;;;;;;;17.91;63.24;101373.19;5063314;28;19925;-82
2022/06/18 04:50:35;;;;;;;;;;;;;;;17.94;62.85;101377.44;5060501;28;19923;-82
2022/06/18 04:53:00;;;;;;;;;;;;;;;17.94;63.21;101375.69;5062887;28;20671;-80
2022/06/18 04:55:26;;;;;;;;;;;;;;;17.96;62.38;101372.97;5062635;28;19924;-80
2022/06/18 04:57:52;;;;;;;;;;;;;;;17.99;62.28;101373.72;5059619;28;19932;-79
2022/06/18 05:00:17;;;;;;;;;;;;;;;17.99;62.48;101378.09;5061330;28;19936;-79
2022/06/18 05:02:43;;;;;;;;;;;;;;;18.01;62.60;101373.63;5061294;28;19913;-79
2022/06/18 05:05:14;;;;;;;;;;;;;;;18.01;62.53;101369.22;5064686;28;20007;-79
2022/06/18 05:07:39;;;;;;;;;;;;;;;18.03;62.20;101367.41;5063792;28;19924;-81
2022/06/18 05:10:05;;;;;;;;;;;;;;;18.03;62.32;101369.19;5067562;28;20419;-82
2022/06/18 05:12:30;;;;;;;;;;;;;;;18.03;62.11;101369.19;5065071;28;19920;-82
2022/06/18 05:14:56;;;;;;;;;;;;;;;18.05;62.23;101373.44;5066610;28;19929;-79
2022/06/18 05:17:23;;;;;;;;;;;;;;;18.05;62.49;101369.97;5060481;28;20011;-76
2022/06/18 05:19:49;;;;;;;;;;;;;;;18.04;61.73;101363.84;5062843;28;20012;-76
2022/06/18 05:22:14;;;;;;;;;;;;;;;18.01;62.95;101358.72;5066599;28;20003;-76
2022/06/18 05:24:39;;;;;;;;;;;;;;;18.02;62.40;101359.56;5065318;28;19998;-78
2022/06/18 05:27:05;;;;;;;;;;;;;;;17.97;61.04;101354.53;5067129;28;19986;-81
2022/06/18 05:29:30;;;;;;;;;;;;;;;18.00;62.89;101358.78;5066829;28;20003;-82
2022/06/18 05:31:56;;;;;;;;;;;;;;;18.02;63.77;101360.44;5064172;28;19917;-82
2022/06/18 05:34:21;;;;;;;;;;;;;;;18.06;63.27;101348.03;5069643;28;20375;-82
2022/06/18 05:36:47;;;;;;;;;;;;;;;18.02;60.98;101355.19;5066666;28;20035;-82
2022/06/18 05:39:14;;;;;;;;;;;;;;;18.03;62.51;101356.03;5071389;28;19920;-82
2022/06/18 05:41:40;;;;;;;;;;;;;;;18.05;62.83;101360.31;5071266;28;19924;-78
2022/06/18 05:44:05;;;;;;;;;;;;;;;18.06;63.13;101359.41;5068147;28;20405;-80
2022/06/18 05:46:31;;;;;;;;;;;;;;;18.05;63.34;101359.44;5064949;28;19924;-79
2022/06/18 05:48:56;;;;;;;;;;;;;;;18.01;61.73;101350.81;5067858;28;19966;-79
2022/06/18 05:51:22;;;;;;;;;;;;;;;18.01;61.13;101349.97;5061920;28;19967;-79
2022/06/18 05:53:48;;;;;;;;;;;;;;;18.05;62.51;101352.41;5062506;28;19921;-79
2022/06/18 05:56:13;;;;;;;;;;;;;;;18.06;62.97;101348.03;5059980;28;19924;-79
2022/06/18 05:58:39;;;;;;;;;;;;;;;18.02;62.28;101338.53;5061919;28;19920;-79
2022/06/18 06:01:04;;;;;;;;;;;;;;;18.02;61.60;101341.16;5061397;28;19994;-79
2022/06/18 06:03:30;;;;;;;;;;;;;;;18.09;62.76;101346.09;5059240;28;20338;-83
2022/06/18 06:05:55;;;;;;;;;;;;;;;18.15;62.61;101342.38;5066173;28;19951;-82
2022/06/18 06:08:21;;;;;;;;;;;;;;;18.16;62.83;101347.53;5066609;28;19925;-83
2022/06/18 06:13:30;;;;;;;;;;;;;;;18.18;62.93;101347.50;5063791;28;19978;-78
2022/06/18 06:15:56;;;;;;;;;;;;;;;18.17;63.29;101343.16;5066394;28;19922;-77
2022/06/18 06:18:22;;;;;;;;;;;;;;;18.14;63.47;101346.78;5068192;28;19943;-77
2022/06/18 06:20:48;;;;;;;;;;;;;;;18.18;63.71;101349.28;5075122;28;20364;-79
2022/06/18 06:23:14;;;;;;;;;;;;;;;18.13;63.59;101344.19;5065324;28;19974;-79
2022/06/18 06:25:41;;;;;;;;;;;;;;;18.12;63.93;101338.06;5066494;28;19921;-79
2022/06/18 06:28:09;;;;;;;;;;;;;;;18.16;64.33;101338.78;5067534;28;19916;-77
2022/06/18 06:30:34;;;;;;;;;;;;;;;18.17;64.33;101340.50;5060210;28;19943;-79
2022/06/18 06:33:00;;;;;;;;;;;;;;;18.18;64.40;101337.81;5065176;28;19948;-79
2022/06/18 06:35:25;;;;;;;;;;;;;;;18.16;64.60;101337.03;5068764;28;19920;-79
2022/06/18 06:37:50;;;;;;;;;;;;;;;18.15;64.33;101335.31;5072905;28;19924;-78
2022/06/18 06:40:16;;;;;;;;;;;;;;;18.15;64.44;101343.19;5068384;28;20392;-79
2022/06/18 06:42:52;;;;;;;;;;;;;;;18.13;64.04;101334.53;5066335;28;19927;-80
2022/06/18 06:45:20;;;;;;;;;;;;;;;18.16;64.24;101339.66;5060812;28;20548;-80
2022/06/18 06:47:46;;;;;;;;;;;;;;;18.18;64.23;101336.97;5065019;28;20000;-80
2022/06/18 06:50:15;;;;;;;;;;;;;;;18.18;64.51;101341.38;5072176;28;20379;-76
2022/06/18 06:52:42;;;;;;;;;;;;;;;18.16;65.10;101344.91;5068602;28;19956;-79
2022/06/18 06:57:59;;;;;;;;;;;;;;;18.15;64.84;101334.47;5064506;28;19927;-79
2022/06/18 07:00:25;;;;;;;;;;;;;;;18.14;62.95;101331.00;5070255;28;19924;-79
2022/06/18 07:02:50;;;;;;;;;;;;;;;18.15;63.21;101331.84;5067200;28;20005;-79
2022/06/18 07:05:16;;;;;;;;;;;;;;;18.12;61.71;101326.72;5070363;28;20007;-79
2022/06/18 07:07:41;;;;;;;;;;;;;;;18.18;64.10;101337.81;5059769;28;19924;-79
2022/06/18 07:10:08;;;;;;;;;;;;;;;18.11;61.51;101328.50;5068859;28;20010;-79
2022/06/18 07:12:34;;;;;;;;;;;;;;;18.14;63.10;101327.50;5066864;28;19924;-79
2022/06/18 07:15:00;;;;;;;;;;;;;;;18.13;63.22;101326.66;5064838;28;19917;-79
2022/06/18 07:17:26;;;;;;;;;;;;;;;18.13;64.90;101334.53;5074902;28;19991;-77
2022/06/18 07:19:51;;;;;;;;;;;;;;;18.10;61.78;101328.53;5059898;28;19931;-77
2022/06/18 07:22:16;;;;;;;;;;;;;;;18.13;63.46;101329.28;5069546;28;19924;-77
2022/06/18 07:24:42;;;;;;;;;;;;;;;18.13;62.12;101329.28;5059424;28;19921;-77
2022/06/18 07:27:07;;;;;;;;;;;;;;;18.13;63.14;101331.03;5064317;28;20024;-80
2022/06/18 07:29:32;;;;;;;;;;;;;;;18.13;62.92;101323.16;5065772;28;20375;-80
2022/06/18 07:32:24;;;;;;;;;;;;;;;18.12;61.28;101324.91;5061761;28;20379;-80
2022/06/18 07:34:50;;;;;;;;;;;;;;;18.10;61.30;101325.91;5063560;28;19943;-80
2022/06/18 07:37:15;;;;;;;;;;;;;;;18.15;61.49;101326.59;5061764;28;20415;-80
2022/06/18 07:39:40;;;;;;;;;;;;;;;18.12;60.98;101319.66;5059939;28;19970;-80
2022/06/18 07:42:06;;;;;;;;;;;;;;;18.20;62.22;101321.97;5060806;28;20398;-80
2022/06/18 07:44:31;;;;;;;;;;;;;;;18.12;61.44;101316.22;5063522;28;19932;-80
2022/06/18 07:47:03;;;;;;;;;;;;;;;18.10;61.21;101316.25;5060661;28;20315;-80
2022/06/18 07:49:28;;;;;;;;;;;;;;;18.16;61.70;101312.50;5062987;28;19928;-80
2022/06/18 07:51:54;;;;;;;;;;;;;;;18.10;61.21;101308.38;5064515;28;20406;-80
2022/06/18 07:54:19;;;;;;;;;;;;;;;18.14;62.56;101309.97;5068367;28;19924;-80
2022/06/18 07:56:45;;;;;;;;;;;;;;;18.16;62.36;101309.88;5061219;28;19970;-80
2022/06/18 07:59:11;;;;;;;;;;;;;;;18.15;61.69;101298.50;5066496;28;20018;-80
2022/06/18 08:01:37;;;;;;;;;;;;;;;18.12;61.52;101290.75;5065462;28;19920;-80
2022/06/18 08:04:03;;;;;;;;;;;;;;;18.11;61.56;101296.94;5068127;28;20102;-80
2022/06/18 08:06:29;;;;;;;;;;;;;;;18.02;61.57;101292.09;5065207;28;20073;-80
2022/06/18 08:08:54;;;;;;;;;;;;;;;18.06;61.64;101285.78;5064323;28;19924;-80
2022/06/18 08:11:20;;;;;;;;;;;;;;;18.06;61.68;101288.41;5065683;28;19924;-80
2022/06/18 08:13:46;;;;;;;;;;;;;;;18.09;61.53;101277.72;5057794;28;20307;-80
2022/06/18 08:16:13;;;;;;;;;;;;;;;18.07;61.93;101276.94;5062919;28;19920;-80
2022/06/18 08:18:38;;;;;;;;;;;;;;;18.08;61.53;101276.03;5063117;28;19930;-80
2022/06/18 08:21:10;;;;;;;;;;;;;;;18.04;61.41;101269.19;5065147;28;19926;-80
2022/06/18 08:23:36;;;;;;;;;;;;;;;18.06;61.58;101270.00;5066146;28;19912;-80
2022/06/18 08:26:01;;;;;;;;;;;;;;;18.04;61.24;101271.81;5064196;28;19928;-80
2022/06/18 08:28:27;;;;;;;;;;;;;;;18.08;61.55;101264.66;5065926;28;19947;-80
2022/06/18 08:30:52;;;;;;;;;;;;;;;18.09;61.48;101261.13;5061728;28;19925;-80
2022/06/18 08:33:18;;;;;;;;;;;;;;;18.42;60.83;101259.59;5062439;28;20015;-80
2022/06/18 08:35:43;;;;;;;;;;;;;;;18.39;61.55;101262.34;5064822;28;19920;-80
2022/06/18 08:38:08;;;;;;;;;;;;;;;18.34;61.51;101264.34;5067227;28;20391;-80
2022/06/18 08:40:46;;;;;;;;;;;;;;;18.38;60.60;101262.44;5068000;28;19920;-80
2022/06/18 08:43:30;;;;;;;;;;;;;;;18.24;61.17;101256.97;5064165;28;20014;-80
2022/06/18 08:46:11;;;;;;;;;;;;;;;18.18;61.79;101260.72;5062264;28;20007;-80
2022/06/18 08:48:39;;;;;;;;;;;;;;;18.74;61.91;101250.25;5060420;28;19924;-80
2022/06/18 08:51:25;;;;;;;;;;;;;;;18.96;60.35;101252.69;5060041;28;20584;-80
2022/06/18 08:53:59;;;;;;;;;;;;;;;18.32;61.08;101254.81;5061038;28;19923;-80
2022/06/18 08:56:32;;;;;;;;;;;;;;;18.26;61.18;101248.06;5066415;28;20010;-80
2022/06/18 08:59:17;;;;;;;;;;;;;;;18.88;62.08;101260.97;5057827;28;19935;-80
2022/06/18 09:01:46;;;;;;;;;;;;;;;18.41;60.95;101257.03;5061052;28;20579;-80
2022/06/18 09:04:20;;;;;;;;;;;;;;;18.31;60.69;101253.09;5062950;28;19948;-80
2022/06/18 09:07:04;;;;;;;;;;;;;;;18.27;61.11;101254.19;5058342;28;19927;-80
2022/06/18 09:09:42;;;;;;;;;;;;;;;18.22;61.06;101250.88;5063625;28;19932;-80
2022/06/18 09:12:10;;;;;;;;;;;;;;;18.31;60.56;101253.97;5064845;28;19932;-80
2022/06/18 09:14:50;;;;;;;;;;;;;;;19.28;59.79;101251.16;5064746;28;19926;-80
2022/06/18 09:17:19;;;;;;;;;;;;;;;19.42;59.19;101243.44;5063962;28;19964;-77
2022/06/18 09:19:49;;;;;;;;;;;;;;;19.00;60.84;101251.63;5062227;28;20322;-78
2022/06/18 09:22:17;;;;;;;;;;;;;;;19.17;58.81;101242.00;5061820;28;19978;-78
2022/06/18 09:24:44;;;;;;;;;;;;;;;18.49;60.23;101236.53;5060747;28;19925;-78
2022/06/18 09:27:20;;;;;;;;;;;;;;;18.48;60.71;101237.47;5055647;28;19921;-78
2022/06/18 09:29:49;;;;;;;;;;;;;;;18.39;60.24;101237.84;5080458;28;19921;-78
2022/06/18 09:32:24;;;;;;;;;;;;;;;18.62;59.98;101240.31;5059543;28;19931;-78
2022/06/18 09:34:52;;;;;;;;;;;;;;;19.06;60.66;101231.13;5060334;28;20517;-79
2022/06/18 09:37:33;;;;;;;;;;;;;;;19.74;58.69;101229.47;5070043;28;19935;-78
2022/06/18 09:40:00;;;;;;;;;;;;;;;19.15;59.20;101235.09;5057199;28;19939;-83
2022/06/18 09:42:34;;;;;;;;;;;;;;;18.57;59.87;101226.50;5055440;28;20002;-83
2022/06/18 09:45:13;;;;;;;;;;;;;;;18.43;60.11;101223.63;5063945;28;19924;-83
2022/06/18 09:47:40;;;;;;;;;;;;;;;18.39;60.33;101224.69;5059338;28;20034;-83
2022/06/18 09:50:32;;;;;;;;;;;;;;;18.64;59.62;101215.63;5063480;28;19920;-83
2022/06/18 09:53:02;;;;;;;;;;;;;;;18.85;60.60;101210.25;5054273;28;19924;-83
2022/06/18 09:55:35;;;;;;;;;;;;;;;18.47;59.83;101210.31;5060316;28;19929;-83
2022/06/18 09:58:02;;;;;;;;;;;;;;;18.44;60.30;101212.19;5063061;28;20058;-83
2022/06/18 10:00:30;;;;;;;;;;;;;;;18.35;60.45;101205.56;5062886;28;19924;-83
2022/06/18 10:02:57;;;;;;;;;;;;;;;18.39;60.65;101201.84;5054191;28;19920;-83
2022/06/18 10:08:10;;;;;;;;;;;;;;;18.89;59.20;101201.28;5064969;28;19977;-83
2022/06/18 10:10:36;;;;;;;;;;;;;;;18.52;59.90;101203.03;5056625;28;19963;-82
2022/06/18 10:13:05;;;;;;;;;;;;;;;18.49;60.43;101197.91;5059947;28;19967;-83
2022/06/18 10:15:31;;;;;;;;;;;;;;;18.81;59.34;101193.75;5060793;28;19931;-83
2022/06/18 10:17:59;;;;;;;;;;;;;;;19.55;57.47;101189.22;5064418;28;19929;-83
2022/06/18 10:20:28;;;;;;;;;;;;;;;19.37;57.82;101187.50;5064332;28;19924;-82
2022/06/18 10:23:12;;;;;;;;;;;;;;;18.74;58.67;101187.09;5066095;28;19924;-83
2022/06/18 10:25:41;;;;;;;;;;;;;;;18.60;59.29;101181.66;5062437;28;19995;-80
2022/06/18 10:28:13;;;;;;;;;;;;;;;18.49;59.85;101176.00;5064233;28;19946;-79
2022/06/18 10:30:38;;;;;;;;;;;;;;;18.52;60.12;101175.88;5061512;28;19960;-79
2022/06/18 10:33:15;;;;;;;;;;;;;;;18.47;60.08;101173.47;5066012;28;19974;-80
2022/06/18 10:35:47;;;;;;;;;;;;;;;18.68;59.09;101166.34;5064347;28;19936;-77
2022/06/18 10:38:18;;;;;;;;;;;;;;;18.49;59.85;101171.63;5062288;28;19921;-77
2022/06/18 10:41:01;;;;;;;;;;;;;;;18.45;60.06;101164.78;5067682;28;19975;-77
2022/06/18 10:43:37;;;;;;;;;;;;;;;18.50;59.97;101167.22;5059836;28;20175;-77
2022/06/18 10:46:07;;;;;;;;;;;;;;;18.42;60.26;101170.16;5060472;28;19925;-77
2022/06/18 10:48:33;;;;;;;;;;;;;;;18.55;59.78;101168.69;5064423;28;20670;-77
2022/06/18 10:51:00;;;;;;;;;;;;;;;18.38;60.36;101173.00;5064000;28;19926;-77
2022/06/18 10:53:27;;;;;;;;;;;;;;;18.32;60.28;101168.91;5066309;28;19920;-77
2022/06/18 10:55:56;;;;;;;;;;;;;;;18.31;60.55;101158.44;5063968;28;19924;-77
2022/06/18 10:58:22;;;;;;;;;;;;;;;18.32;60.30;101145.22;5070366;28;20098;-77
2022/06/18 11:00:58;;;;;;;;;;;;;;;18.43;60.24;101150.81;5057380;28;19932;-77
2022/06/18 11:03:26;;;;;;;;;;;;;;;18.80;58.82;101147.31;5058327;28;19924;-82
2022/06/18 11:05:51;;;;;;;;;;;;;;;18.56;60.02;101152.00;5063209;28;19931;-80
2022/06/18 11:08:18;;;;;;;;;;;;;;;19.21;58.04;101155.78;5064005;28;19921;-80
2022/06/18 11:11:01;;;;;;;;;;;;;;;18.70;59.20;101146.91;5064225;28;19924;-80
2022/06/18 11:13:27;;;;;;;;;;;;;;;18.62;59.95;101145.56;5065429;28;19924;-79
2022/06/18 11:16:11;;;;;;;;;;;;;;;18.48;60.03;101148.03;5066079;28;19942;-79
2022/06/18 11:18:43;;;;;;;;;;;;;;;18.58;59.97;101133.47;5060794;28;20055;-80
2022/06/18 11:21:12;;;;;;;;;;;;;;;18.75;59.61;101130.06;5062585;28;19924;-82
2022/06/18 11:23:38;;;;;;;;;;;;;;;18.63;59.31;101128.84;5063668;28;19928;-83
2022/06/18 11:26:10;;;;;;;;;;;;;;;18.64;59.54;101135.81;5067032;28;20394;-77
2022/06/18 11:28:41;;;;;;;;;;;;;;;18.75;58.97;101130.88;5064280;28;20095;-77
2022/06/18 11:31:09;;;;;;;;;;;;;;;19.02;58.19;101133.91;5065389;28;20038;-77
2022/06/18 11:33:35;;;;;;;;;;;;;;;18.84;58.42;101127.78;5069010;28;19963;-79
2022/06/18 11:36:27;;;;;;;;;;;;;;;18.64;59.38;101133.19;5064845;28;20022;-79
2022/06/18 11:38:57;;;;;;;;;;;;;;;19.08;58.48;101123.09;5063153;28;20672;-79
2022/06/18 11:41:38;;;;;;;;;;;;;;;18.64;59.12;101120.03;5063485;28;20555;-80
2022/06/18 11:44:04;;;;;;;;;;;;;;;19.39;58.29;101110.09;5061655;28;20561;-80
2022/06/18 11:46:35;;;;;;;;;;;;;;;18.77;59.07;101105.34;5064363;28;20042;-80
2022/06/18 11:49:07;;;;;;;;;;;;;;;18.60;59.19;101102.72;5062753;28;20362;-80
2022/06/18 11:51:36;;;;;;;;;;;;;;;18.69;59.38;101104.84;5065055;28;20032;-80
2022/06/18 11:54:01;;;;;;;;;;;;;;;19.38;57.47;101099.63;5063345;28;19921;-80
2022/06/18 11:56:39;;;;;;;;;;;;;;;19.09;58.17;101095.84;5066009;28;19939;-80
2022/06/18 11:59:13;;;;;;;;;;;;;;;18.82;58.94;101089.31;5060053;28;19921;-80
2022/06/18 12:01:45;;;;;;;;;;;;;;;19.03;58.84;101096.13;5067151;28;19932;-80
2022/06/18 12:04:34;;;;;;;;;;;;;;;19.17;57.17;101088.38;5061107;28;20401;-80
2022/06/18 12:07:02;;;;;;;;;;;;;;;18.90;58.21;101088.00;5061090;28;19920;-80
2022/06/18 12:09:29;;;;;;;;;;;;;;;18.68;58.80;101088.25;5066809;28;19921;-79
2022/06/18 12:11:57;;;;;;;;;;;;;;;18.76;58.59;101087.00;5066919;28;19975;-79
2022/06/18 12:14:31;;;;;;;;;;;;;;;18.67;58.87;101077.78;5064026;28;19956;-79
2022/06/18 12:17:00;;;;;;;;;;;;;;;18.70;58.94;101075.00;5072786;28;19932;-79
2022/06/18 12:19:28;;;;;;;;;;;;;;;19.04;59.99;101080.28;5067597;28;19928;-79
2022/06/18 12:21:56;;;;;;;;;;;;;;;18.88;58.52;101070.59;5060626;28;19932;-79
2022/06/18 12:24:38;;;;;;;;;;;;;;;18.81;58.77;101070.03;5066802;28;19924;-83
2022/06/18 12:27:13;;;;;;;;;;;;;;;18.92;58.11;101062.47;5064042;28;19967;-83
2022/06/18 12:29:57;;;;;;;;;;;;;;;18.76;58.87;101050.16;5061017;28;19973;-83
2022/06/18 12:32:47;;;;;;;;;;;;;;;18.83;58.98;101054.19;5060115;28;19916;-83
2022/06/18 12:35:32;;;;;;;;;;;;;;;18.77;58.57;101051.84;5069050;28;19925;-83
2022/06/18 12:38:04;;;;;;;;;;;;;;;18.71;58.46;101045.13;5066744;28;19924;-83
2022/06/18 12:40:29;;;;;;;;;;;;;;;18.69;58.70;101039.94;5061433;28;19932;-83
2022/06/18 12:42:57;;;;;;;;;;;;;;;18.69;58.73;101037.28;5064846;28;19927;-83
2022/06/18 12:45:22;;;;;;;;;;;;;;;18.76;58.54;101029.94;5059855;28;20003;-82
2022/06/18 12:48:01;;;;;;;;;;;;;;;18.74;58.55;101023.06;5057638;28;20007;-77
2022/06/18 12:50:35;;;;;;;;;;;;;;;18.70;58.76;101022.34;5063600;28;20002;-77
2022/06/18 12:53:07;;;;;;;;;;;;;;;18.73;58.63;101011.69;5059441;28;19939;-77
2022/06/18 12:55:36;;;;;;;;;;;;;;;20.00;57.30;101015.38;5059201;28;19968;-79
2022/06/18 12:58:09;;;;;;;;;;;;;;;19.85;56.24;101008.31;5062305;28;19958;-79
2022/06/18 13:00:46;;;;;;;;;;;;;;;19.56;57.05;101004.66;5061419;28;21754;-79